Time;durP1;ratioP1;P1;durP2;ratioP2;P2;SDS_P1;SDS_P2;PMS_P1;PMS_P2;Temp;Humidity;BMP_temperature;BMP_pressure;BME280_temperature;BME280_humidity;BME280_pressure;Samples;Min_cycle;Max_cycle;Signal;HPM_P1;HPM_P2
2023/03/21 00:00:40;;;;;;;;;;;;;;;21.32;45.98;101081.84;7258225;19;153551;-54
2023/03/21 00:03:07;;;;;;;;;;;;;;;21.35;46.17;101081.25;7256081;19;155031;-55
2023/03/21 00:05:38;;;;;;;;;;;;;;;21.40;45.94;101076.34;7268158;19;151832;-54
2023/03/21 00:08:07;;;;;;;;;;;;;;;21.40;46.07;101073.53;7256199;19;153920;-54
2023/03/21 00:10:34;;;;;;;;;;;;;;;21.45;45.92;101066.97;7259094;19;153331;-54
2023/03/21 00:13:11;;;;;;;;;;;;;;;21.46;45.76;101055.41;7259457;19;152808;-54
2023/03/21 00:15:49;;;;;;;;;;;;;;;21.48;45.60;101058.75;7260076;19;153537;-55
2023/03/21 00:18:40;;;;;;;;;;;;;;;21.51;45.68;101048.84;7257614;19;152217;-55
2023/03/21 00:21:10;;;;;;;;;;;;;;;21.53;45.54;101053.00;7258087;19;153332;-55
2023/03/21 00:23:57;;;;;;;;;;;;;;;21.56;45.52;101049.59;7253313;19;153638;-55
2023/03/21 00:26:24;;;;;;;;;;;;;;;21.59;45.52;101053.75;7258543;19;152478;-54
2023/03/21 00:28:51;;;;;;;;;;;;;;;21.62;45.56;101045.50;7263087;19;153684;-55
2023/03/21 00:31:19;;;;;;;;;;;;;;;21.63;45.55;101046.34;7257485;19;153058;-55
2023/03/21 00:33:46;;;;;;;;;;;;;;;21.66;45.49;101037.31;7257774;19;153095;-55
2023/03/21 00:36:14;;;;;;;;;;;;;;;21.66;45.97;101038.13;7258837;19;153030;-55
2023/03/21 00:38:42;;;;;;;;;;;;;;;21.67;45.94;101039.78;7260071;19;152566;-55
2023/03/21 00:41:10;;;;;;;;;;;;;;;21.68;46.08;101044.25;7256518;19;153302;-54
2023/03/21 00:43:54;;;;;;;;;;;;;;;21.70;45.61;101036.38;7258053;19;153412;-54
2023/03/21 00:46:21;;;;;;;;;;;;;;;21.70;45.71;101033.53;7260111;19;153929;-55
2023/03/21 00:48:51;;;;;;;;;;;;;;;21.72;45.94;101022.81;7262615;19;153380;-55
2023/03/21 00:51:25;;;;;;;;;;;;;;;21.74;45.72;101028.13;7262991;19;153497;-55
2023/03/21 00:53:53;;;;;;;;;;;;;;;21.75;45.89;101015.72;7258542;19;154095;-55
2023/03/21 00:56:21;;;;;;;;;;;;;;;21.74;45.87;101020.53;7256474;19;154333;-55
2023/03/21 00:58:48;;;;;;;;;;;;;;;21.74;45.77;101020.53;7259878;19;152878;-55
2023/03/21 01:01:15;;;;;;;;;;;;;;;21.74;45.96;101006.47;7259514;19;152999;-55
2023/03/21 01:03:49;;;;;;;;;;;;;;;21.75;46.11;101001.66;7257270;19;153479;-55
2023/03/21 01:06:19;;;;;;;;;;;;;;;21.76;46.06;101005.31;7255382;19;153204;-54
2023/03/21 01:08:47;;;;;;;;;;;;;;;21.77;45.84;100998.53;7256797;19;154479;-54
2023/03/21 01:11:21;;;;;;;;;;;;;;;21.74;45.78;101000.84;7251917;19;154936;-54
2023/03/21 01:13:49;;;;;;;;;;;;;;;21.73;45.86;100992.69;7267120;19;153664;-54
2023/03/21 01:16:27;;;;;;;;;;;;;;;21.73;46.09;100993.53;7256963;19;154516;-55
2023/03/21 01:18:55;;;;;;;;;;;;;;;21.71;46.57;100978.94;7254389;19;153890;-54
2023/03/21 01:21:22;;;;;;;;;;;;;;;21.72;46.40;100979.78;7256175;19;152661;-54
2023/03/21 01:23:49;;;;;;;;;;;;;;;21.73;46.69;100973.00;7253465;19;153344;-54
2023/03/21 01:26:16;;;;;;;;;;;;;;;21.70;46.81;100973.66;7254180;19;152641;-54
2023/03/21 01:28:44;;;;;;;;;;;;;;;21.70;46.94;100966.06;7255894;19;153197;-54
2023/03/21 01:31:12;;;;;;;;;;;;;;;21.67;47.31;100958.22;7262457;19;153963;-54
2023/03/21 01:33:40;;;;;;;;;;;;;;;21.67;47.10;100963.00;7261674;19;153123;-54
2023/03/21 01:36:15;;;;;;;;;;;;;;;21.67;47.64;100961.03;7267354;19;152967;-54
2023/03/21 01:38:44;;;;;;;;;;;;;;;21.64;47.60;100963.66;7260164;19;153083;-54
2023/03/21 01:41:18;;;;;;;;;;;;;;;21.62;47.69;100954.72;7263096;19;154111;-54
2023/03/21 01:43:46;;;;;;;;;;;;;;;21.62;47.65;100951.91;7259257;19;155478;-54
2023/03/21 01:46:19;;;;;;;;;;;;;;;21.59;47.48;100956.16;7262365;19;153627;-54
2023/03/21 01:48:53;;;;;;;;;;;;;;;21.60;47.47;100955.03;7259877;19;153108;-54
2023/03/21 01:51:21;;;;;;;;;;;;;;;21.56;47.54;100951.19;7260669;19;153269;-54
2023/03/21 01:53:48;;;;;;;;;;;;;;;21.53;48.07;100943.38;7260192;19;153685;-54
2023/03/21 01:56:18;;;;;;;;;;;;;;;21.53;48.11;100943.38;7259020;19;152701;-54
2023/03/21 01:58:45;;;;;;;;;;;;;;;21.49;47.99;100945.16;7266795;19;154035;-54
2023/03/21 02:01:14;;;;;;;;;;;;;;;21.49;48.00;100938.69;7264161;19;154035;-54
2023/03/21 02:06:15;;;;;;;;;;;;;;;21.43;47.94;100932.38;7259553;19;153119;-54
2023/03/21 02:08:42;;;;;;;;;;;;;;;21.39;48.56;100936.13;7261633;19;152764;-54
2023/03/21 02:11:09;;;;;;;;;;;;;;;21.36;48.51;100919.88;7258007;19;154189;-54
2023/03/21 02:13:36;;;;;;;;;;;;;;;21.31;48.25;100912.38;7260747;19;153524;-54
2023/03/21 02:16:11;;;;;;;;;;;;;;;21.28;48.66;100908.25;7261358;19;153178;-54
2023/03/21 02:18:41;;;;;;;;;;;;;;;21.27;48.28;100902.91;7267727;19;153264;-54
2023/03/21 02:21:18;;;;;;;;;;;;;;;21.26;48.27;100899.28;7260888;19;155071;-54
2023/03/21 02:23:48;;;;;;;;;;;;;;;21.21;48.72;100898.59;7258078;19;153928;-54
2023/03/21 02:26:18;;;;;;;;;;;;;;;21.21;48.26;100899.38;7258262;19;153326;-54
2023/03/21 02:28:49;;;;;;;;;;;;;;;21.17;48.85;100889.91;7263395;19;153585;-54
2023/03/21 02:31:19;;;;;;;;;;;;;;;21.18;48.65;100885.97;7262339;19;153553;-54
2023/03/21 02:33:48;;;;;;;;;;;;;;;21.17;48.57;100889.09;7260330;19;153221;-54
2023/03/21 02:36:25;;;;;;;;;;;;;;;21.15;48.79;100892.22;7262207;19;153014;-54
2023/03/21 02:38:58;;;;;;;;;;;;;;;21.13;48.77;100888.88;7257844;19;153285;-54
2023/03/21 02:41:31;;;;;;;;;;;;;;;21.12;49.02;100897.63;7261387;19;153681;-54
2023/03/21 02:44:09;;;;;;;;;;;;;;;21.09;48.97;100890.63;7257915;19;153882;-54
2023/03/21 02:46:41;;;;;;;;;;;;;;;21.08;48.93;100891.78;7262460;19;152622;-54
2023/03/21 02:49:19;;;;;;;;;;;;;;;21.07;49.02;100889.28;7262688;19;153298;-54
2023/03/21 02:51:48;;;;;;;;;;;;;;;21.04;48.68;100878.66;7259043;19;153703;-54
2023/03/21 02:54:17;;;;;;;;;;;;;;;21.02;48.96;100875.34;7259661;19;152788;-54
2023/03/21 02:57:05;;;;;;;;;;;;;;;21.01;49.06;100866.09;7253698;19;152777;-54
2023/03/21 02:59:32;;;;;;;;;;;;;;;21.00;49.10;100867.22;7259456;19;154076;-54
2023/03/21 03:02:04;;;;;;;;;;;;;;;20.97;49.08;100867.03;7257665;19;153744;-54
2023/03/21 03:04:31;;;;;;;;;;;;;;;20.95;48.81;100863.69;7265107;19;153462;-54
2023/03/21 03:06:59;;;;;;;;;;;;;;;20.92;49.04;100867.13;7262596;19;152734;-54
2023/03/21 03:09:30;;;;;;;;;;;;;;;20.91;49.11;100869.13;7259753;19;152756;-54
2023/03/21 03:12:04;;;;;;;;;;;;;;;20.91;49.23;100865.47;7260079;19;153999;-54
2023/03/21 03:14:39;;;;;;;;;;;;;;;20.86;49.25;100864.44;7259867;19;153379;-54
2023/03/21 03:17:28;;;;;;;;;;;;;;;20.85;49.15;100862.75;7258791;19;153269;-54
2023/03/21 03:19:58;;;;;;;;;;;;;;;20.83;49.50;100862.25;7259257;19;152989;-55
2023/03/21 03:22:45;;;;;;;;;;;;;;;20.81;49.15;100856.13;7257589;19;152988;-55
2023/03/21 03:25:18;;;;;;;;;;;;;;;20.79;49.19;100858.41;7256317;19;153040;-54
2023/03/21 03:28:06;;;;;;;;;;;;;;;20.75;49.34;100842.50;7265595;19;153984;-55
2023/03/21 03:30:35;;;;;;;;;;;;;;;20.74;49.40;100844.47;7257655;19;153344;-54
2023/03/21 03:33:15;;;;;;;;;;;;;;;20.71;49.28;100845.13;7256449;19;154449;-54
2023/03/21 03:35:44;;;;;;;;;;;;;;;20.70;49.47;100829.41;7256957;19;153692;-54
2023/03/21 03:38:20;;;;;;;;;;;;;;;20.67;49.48;100835.63;7259082;19;152811;-54
2023/03/21 03:40:50;;;;;;;;;;;;;;;20.66;49.24;100836.78;7256693;19;152824;-54
2023/03/21 03:43:21;;;;;;;;;;;;;;;20.64;49.55;100830.66;7256709;19;154439;-54
2023/03/21 03:45:51;;;;;;;;;;;;;;;20.62;49.71;100829.31;7256936;19;153009;-54
2023/03/21 03:48:23;;;;;;;;;;;;;;;20.60;49.38;100821.19;7254544;19;154354;-54
2023/03/21 03:50:53;;;;;;;;;;;;;;;20.57;49.55;100810.59;7266121;19;153932;-54
2023/03/21 03:53:24;;;;;;;;;;;;;;;20.55;49.49;100804.44;7259675;19;153886;-54
2023/03/21 03:55:53;;;;;;;;;;;;;;;20.55;49.58;100804.44;7254214;19;153470;-55
2023/03/21 03:58:21;;;;;;;;;;;;;;;20.52;49.57;100802.28;7258129;19;155326;-55
2023/03/21 04:00:55;;;;;;;;;;;;;;;20.52;49.75;100807.88;7254447;19;154530;-55
2023/03/21 04:03:22;;;;;;;;;;;;;;;20.50;49.76;100812.97;7256644;19;153129;-54
2023/03/21 04:05:49;;;;;;;;;;;;;;;20.49;49.58;100811.28;7255427;19;153775;-54
2023/03/21 04:08:16;;;;;;;;;;;;;;;20.48;50.13;100814.44;7256741;19;154117;-54
2023/03/21 04:10:43;;;;;;;;;;;;;;;20.46;49.87;100797.06;7255303;19;153199;-54
2023/03/21 04:13:10;;;;;;;;;;;;;;;20.46;50.07;100797.06;7263122;19;154671;-54
2023/03/21 04:15:37;;;;;;;;;;;;;;;20.43;49.83;100795.72;7254213;19;152568;-54
2023/03/21 04:18:04;;;;;;;;;;;;;;;20.39;50.20;100792.72;7255842;19;153820;-54
2023/03/21 04:20:31;;;;;;;;;;;;;;;20.39;50.05;100808.72;7256903;19;154579;-54
2023/03/21 04:23:10;;;;;;;;;;;;;;;20.38;49.71;100781.78;7254283;19;154599;-54
2023/03/21 04:25:37;;;;;;;;;;;;;;;20.37;50.09;100792.19;7252024;19;154146;-54
2023/03/21 04:28:16;;;;;;;;;;;;;;;20.34;49.87;100770.38;7256251;19;154226;-54
2023/03/21 04:30:44;;;;;;;;;;;;;;;20.33;50.02;100767.88;7254061;19;153725;-54
2023/03/21 04:33:27;;;;;;;;;;;;;;;20.32;50.29;100763.38;7261381;19;153231;-54
2023/03/21 04:35:55;;;;;;;;;;;;;;;20.31;50.47;100770.13;7259891;19;152781;-54
2023/03/21 04:38:23;;;;;;;;;;;;;;;20.30;50.28;100774.09;7259194;19;152698;-54
2023/03/21 04:40:50;;;;;;;;;;;;;;;20.28;50.43;100787.56;7254405;19;154134;-54
2023/03/21 04:43:16;;;;;;;;;;;;;;;20.28;50.42;100781.97;7256459;19;153048;-54
2023/03/21 04:45:43;;;;;;;;;;;;;;;20.25;50.54;100777.81;7257775;19;155010;-54
2023/03/21 04:48:12;;;;;;;;;;;;;;;20.25;50.90;100777.81;7257142;19;153298;-54
2023/03/21 04:50:39;;;;;;;;;;;;;;;20.25;50.46;100765.75;7258830;19;154219;-54
2023/03/21 04:53:06;;;;;;;;;;;;;;;20.22;50.60;100769.16;7256138;19;154172;-54
2023/03/21 04:55:35;;;;;;;;;;;;;;;20.23;50.47;100784.84;7261873;19;153533;-55
2023/03/21 04:58:03;;;;;;;;;;;;;;;20.20;50.52;100782.69;7254846;19;152702;-54
2023/03/21 05:00:31;;;;;;;;;;;;;;;20.18;50.68;100770.94;7253100;19;154472;-54
2023/03/21 05:02:59;;;;;;;;;;;;;;;20.17;50.82;100764.47;7255522;19;153907;-54
2023/03/21 05:05:25;;;;;;;;;;;;;;;20.17;50.32;100755.25;7259142;19;153023;-54
2023/03/21 05:07:52;;;;;;;;;;;;;;;20.14;50.42;100753.06;7262300;19;153983;-54
2023/03/21 05:10:19;;;;;;;;;;;;;;;20.13;49.96;100755.03;7260363;19;153739;-54
2023/03/21 05:12:46;;;;;;;;;;;;;;;20.12;50.28;100759.00;7262665;19;155329;-54
2023/03/21 05:15:13;;;;;;;;;;;;;;;20.11;49.97;100754.53;7264563;19;154050;-54
2023/03/21 05:17:41;;;;;;;;;;;;;;;20.11;50.49;100753.69;7270968;19;153596;-54
2023/03/21 05:20:10;;;;;;;;;;;;;;;20.08;50.10;100746.72;7261690;19;153888;-54
2023/03/21 05:22:39;;;;;;;;;;;;;;;20.11;50.54;100756.50;7264474;19;152466;-54
2023/03/21 05:25:08;;;;;;;;;;;;;;;20.06;50.48;100750.97;7262698;19;153781;-54
2023/03/21 05:27:35;;;;;;;;;;;;;;;20.06;50.40;100748.19;7260720;19;153802;-55
2023/03/21 05:30:05;;;;;;;;;;;;;;;20.05;50.21;100749.31;7263853;19;153549;-54
2023/03/21 05:32:32;;;;;;;;;;;;;;;20.04;50.06;100756.06;7262535;19;152824;-54
2023/03/21 05:34:59;;;;;;;;;;;;;;;20.02;50.08;100755.56;7258939;19;153003;-54
2023/03/21 05:37:26;;;;;;;;;;;;;;;19.99;50.15;100751.38;7261528;19;152257;-54
2023/03/21 05:39:53;;;;;;;;;;;;;;;19.98;50.53;100739.34;7269343;19;154177;-54
2023/03/21 05:42:20;;;;;;;;;;;;;;;19.97;50.64;100740.50;7263197;19;153424;-54
2023/03/21 05:44:47;;;;;;;;;;;;;;;19.95;50.43;100737.16;7263122;19;153596;-54
2023/03/21 05:47:15;;;;;;;;;;;;;;;19.95;50.27;100731.53;7257144;19;154652;-54
2023/03/21 05:49:42;;;;;;;;;;;;;;;19.94;50.29;100726.25;7262421;19;152478;-54
2023/03/21 05:52:09;;;;;;;;;;;;;;;19.91;50.70;100730.50;7263070;19;153876;-54
2023/03/21 05:54:36;;;;;;;;;;;;;;;19.91;50.77;100730.50;7259711;19;154269;-54
2023/03/21 05:57:03;;;;;;;;;;;;;;;19.89;50.36;100731.97;7259641;19;153538;-54
2023/03/21 05:59:30;;;;;;;;;;;;;;;19.90;50.53;100725.19;7262623;19;153575;-54
2023/03/21 06:01:57;;;;;;;;;;;;;;;19.88;50.33;100725.53;7267429;19;154184;-54
2023/03/21 06:04:24;;;;;;;;;;;;;;;19.87;50.31;100743.47;7259603;19;153805;-54
2023/03/21 06:06:52;;;;;;;;;;;;;;;19.85;50.29;100742.94;7257982;19;153062;-54
2023/03/21 06:09:21;;;;;;;;;;;;;;;19.84;50.46;100751.69;7260973;19;153374;-54
2023/03/21 06:11:49;;;;;;;;;;;;;;;19.83;50.63;100745.25;7257267;19;153271;-54
2023/03/21 06:14:16;;;;;;;;;;;;;;;19.81;50.64;100733.50;7261217;19;154352;-54
2023/03/21 06:16:43;;;;;;;;;;;;;;;19.81;50.64;100735.47;7258938;19;153162;-54
2023/03/21 06:19:10;;;;;;;;;;;;;;;19.79;50.49;100727.38;7260710;19;153706;-54
2023/03/21 06:21:37;;;;;;;;;;;;;;;19.80;50.67;100726.25;7259370;19;154558;-54
2023/03/21 06:24:04;;;;;;;;;;;;;;;19.79;50.42;100724.56;7267935;19;153311;-54
2023/03/21 06:26:31;;;;;;;;;;;;;;;19.78;50.38;100728.50;7257704;19;154242;-54
2023/03/21 06:28:58;;;;;;;;;;;;;;;19.77;50.67;100728.81;7260730;19;152698;-54
2023/03/21 06:31:25;;;;;;;;;;;;;;;19.76;50.85;100735.56;7259932;19;154346;-54
2023/03/21 06:33:52;;;;;;;;;;;;;;;19.74;50.88;100724.66;7260608;19;154176;-54
2023/03/21 06:36:19;;;;;;;;;;;;;;;19.73;50.78;100733.38;7259261;19;152946;-55
2023/03/21 06:38:47;;;;;;;;;;;;;;;19.71;50.71;100741.28;7260720;19;153956;-54
2023/03/21 06:41:15;;;;;;;;;;;;;;;19.70;50.45;100737.63;7255652;19;153926;-54
2023/03/21 06:43:43;;;;;;;;;;;;;;;19.68;50.44;100739.06;7268422;19;153574;-54
2023/03/21 06:46:10;;;;;;;;;;;;;;;19.68;50.29;100734.28;7257153;19;153281;-54
2023/03/21 06:48:38;;;;;;;;;;;;;;;19.66;50.31;100731.00;7258323;19;153230;-54
2023/03/21 06:51:05;;;;;;;;;;;;;;;19.65;50.74;100729.31;7259936;19;153453;-54
2023/03/21 06:53:32;;;;;;;;;;;;;;;19.65;50.42;100728.47;7256532;19;154395;-54
2023/03/21 06:56:01;;;;;;;;;;;;;;;19.62;50.32;100718.72;7257412;19;153253;-54
2023/03/21 06:58:28;;;;;;;;;;;;;;;19.63;50.55;100714.75;7258621;19;154151;-54
2023/03/21 07:00:57;;;;;;;;;;;;;;;19.62;50.49;100712.28;7257553;19;154175;-54
2023/03/21 07:03:24;;;;;;;;;;;;;;;19.61;50.33;100716.22;7255308;19;153043;-54
2023/03/21 07:05:52;;;;;;;;;;;;;;;19.60;50.42;100711.75;7262565;19;153444;-53
2023/03/21 07:08:19;;;;;;;;;;;;;;;19.59;50.81;100716.53;7256476;19;152807;-54
2023/03/21 07:10:46;;;;;;;;;;;;;;;19.61;50.40;100708.66;7256305;19;153433;-54
2023/03/21 07:13:13;;;;;;;;;;;;;;;19.73;50.49;100714.59;7256234;19;153291;-54
2023/03/21 07:15:40;;;;;;;;;;;;;;;19.81;50.63;100702.66;7259110;19;153055;-54
2023/03/21 07:18:08;;;;;;;;;;;;;;;19.88;50.84;100700.28;7259543;19;153711;-54
2023/03/21 07:20:36;;;;;;;;;;;;;;;19.94;50.99;100707.44;7255263;19;153759;-54
2023/03/21 07:23:04;;;;;;;;;;;;;;;19.83;49.31;100699.53;7254708;19;153684;-54
2023/03/21 07:25:31;;;;;;;;;;;;;;;19.78;48.96;100694.88;7254281;19;152776;-54
2023/03/21 07:27:58;;;;;;;;;;;;;;;19.90;49.21;100703.59;7259149;19;153442;-54
2023/03/21 07:30:25;;;;;;;;;;;;;;;20.00;49.29;100708.19;7256532;19;153985;-54
2023/03/21 07:32:52;;;;;;;;;;;;;;;20.03;49.39;100713.19;7255672;19;155845;-54
2023/03/21 07:35:19;;;;;;;;;;;;;;;20.08;49.25;100701.84;7255150;19;153635;-54
2023/03/21 07:37:46;;;;;;;;;;;;;;;20.13;49.09;100704.53;7257202;19;153632;-54
2023/03/21 07:40:13;;;;;;;;;;;;;;;20.19;48.95;100706.09;7252835;19;155408;-54
2023/03/21 07:42:40;;;;;;;;;;;;;;;20.29;48.68;100719.09;7255804;19;152806;-55
2023/03/21 07:45:08;;;;;;;;;;;;;;;20.28;48.33;100709.84;7255499;19;152750;-54
2023/03/21 07:47:35;;;;;;;;;;;;;;;20.33;48.52;100708.94;7251414;19;153827;-54
2023/03/21 07:50:03;;;;;;;;;;;;;;;20.35;47.94;100718.69;7264380;19;151920;-54
2023/03/21 07:52:30;;;;;;;;;;;;;;;20.38;48.00;100711.63;7254736;19;155701;-54
2023/03/21 07:54:57;;;;;;;;;;;;;;;20.39;47.92;100716.94;7254390;19;152725;-54
2023/03/21 07:57:24;;;;;;;;;;;;;;;20.41;47.62;100719.44;7092405;19;3122828;-54
2023/03/21 07:59:51;;;;;;;;;;;;;;;20.44;47.18;100718.81;7255955;19;153743;-54
2023/03/21 08:02:18;;;;;;;;;;;;;;;20.45;47.21;100720.47;7257106;19;152002;-54
2023/03/21 08:04:45;;;;;;;;;;;;;;;20.47;47.46;100718.19;7256038;19;153850;-54
2023/03/21 08:07:12;;;;;;;;;;;;;;;20.48;47.05;100714.22;7257240;19;154216;-54
2023/03/21 08:09:39;;;;;;;;;;;;;;;20.49;47.01;100707.44;7257495;19;153951;-54
2023/03/21 08:12:07;;;;;;;;;;;;;;;20.50;46.81;100716.72;7265050;19;153521;-54
2023/03/21 08:14:35;;;;;;;;;;;;;;;20.49;47.21;100704.66;7259023;19;154141;-54
2023/03/21 08:17:03;;;;;;;;;;;;;;;20.51;46.83;100701.53;7250591;19;154524;-54
2023/03/21 08:19:30;;;;;;;;;;;;;;;20.50;47.11;100697.06;7256338;19;154388;-54
2023/03/21 08:21:58;;;;;;;;;;;;;;;20.53;46.94;100702.91;7256935;19;153026;-54
2023/03/21 08:24:26;;;;;;;;;;;;;;;20.54;47.13;100700.91;7253949;19;153638;-54
2023/03/21 08:26:53;;;;;;;;;;;;;;;20.54;46.75;100706.50;7250226;19;152822;-54
2023/03/21 08:29:21;;;;;;;;;;;;;;;20.54;46.73;100706.50;7256895;19;153304;-57
2023/03/21 08:31:49;;;;;;;;;;;;;;;20.56;46.77;100712.66;7256783;19;154172;-53
2023/03/21 08:34:16;;;;;;;;;;;;;;;20.58;46.76;100716.78;7260731;19;153374;-52
2023/03/21 08:36:43;;;;;;;;;;;;;;;20.60;46.75;100724.91;7256490;19;153078;-53
2023/03/21 08:39:10;;;;;;;;;;;;;;;20.59;46.90;100726.06;7251310;19;153929;-54
2023/03/21 08:41:37;;;;;;;;;;;;;;;20.59;46.96;100720.44;7254920;19;153748;-54
2023/03/21 08:44:05;;;;;;;;;;;;;;;20.58;47.19;100708.38;7257505;19;153926;-54
2023/03/21 08:46:32;;;;;;;;;;;;;;;20.58;47.04;100705.56;7252423;19;153353;-54
2023/03/21 08:49:00;;;;;;;;;;;;;;;20.58;46.92;100707.56;7255191;19;154082;-53
2023/03/21 08:51:27;;;;;;;;;;;;;;;20.56;46.50;100707.88;7254075;19;153957;-54
2023/03/21 08:53:54;;;;;;;;;;;;;;;20.56;46.80;100705.06;7260818;19;153930;-54
2023/03/21 08:56:21;;;;;;;;;;;;;;;20.54;46.62;100692.47;7253399;19;154271;-53
2023/03/21 08:58:49;;;;;;;;;;;;;;;20.57;46.35;100680.63;7254904;19;153109;-53
2023/03/21 09:01:16;;;;;;;;;;;;;;;20.58;46.51;100682.31;7252825;19;152044;-53
2023/03/21 09:03:43;;;;;;;;;;;;;;;20.58;46.55;100677.50;7256839;19;153518;-53
2023/03/21 09:06:12;;;;;;;;;;;;;;;20.59;46.82;100675.53;7255020;19;154800;-53
2023/03/21 09:08:40;;;;;;;;;;;;;;;20.60;46.27;100682.81;7251315;19;153866;-53
2023/03/21 09:11:08;;;;;;;;;;;;;;;20.56;46.32;100670.56;7253518;19;153010;-53
2023/03/21 09:13:36;;;;;;;;;;;;;;;20.56;46.64;100671.38;7252932;19;154700;-54
2023/03/21 09:16:03;;;;;;;;;;;;;;;20.58;46.49;100676.69;7262851;19;153441;-54
2023/03/21 09:21:10;;;;;;;;;;;;;;;20.73;48.59;100682.78;7253380;19;153754;-55
2023/03/21 09:23:40;;;;;;;;;;;;;;;20.75;49.39;100674.03;7239446;19;154051;-54
2023/03/21 09:26:11;;;;;;;;;;;;;;;20.70;50.64;100677.78;7249601;19;152318;-54
2023/03/21 09:28:39;;;;;;;;;;;;;;;20.70;50.34;100677.78;7251725;19;153239;-54
2023/03/21 09:31:22;;;;;;;;;;;;;;;20.65;50.64;100674.28;7254203;19;152663;-54
2023/03/21 09:33:52;;;;;;;;;;;;;;;20.63;50.56;100671.78;7252543;19;154272;-54
2023/03/21 09:36:26;;;;;;;;;;;;;;;20.58;50.23;100663.47;7251404;19;153541;-54
2023/03/21 09:39:07;;;;;;;;;;;;;;;20.54;50.15;100668.06;7257648;19;153965;-54
2023/03/21 09:41:40;;;;;;;;;;;;;;;20.53;49.75;100668.38;7250363;19;153035;-54
2023/03/21 09:44:12;;;;;;;;;;;;;;;20.47;49.36;100672.44;7252489;19;153621;-54
2023/03/21 09:46:44;;;;;;;;;;;;;;;20.46;49.15;100670.78;7252555;19;155346;-54
2023/03/21 09:49:14;;;;;;;;;;;;;;;20.41;49.33;100663.31;7248840;19;154583;-54
2023/03/21 09:51:45;;;;;;;;;;;;;;;20.45;48.79;100664.31;7255472;19;154289;-54
2023/03/21 09:54:16;;;;;;;;;;;;;;;20.44;48.83;100662.69;7255135;19;153242;-54
2023/03/21 09:56:44;;;;;;;;;;;;;;;20.40;48.84;100664.44;7257628;19;153903;-54
2023/03/21 09:59:26;;;;;;;;;;;;;;;20.38;48.60;100669.56;7257741;19;153917;-54
2023/03/21 10:02:01;;;;;;;;;;;;;;;20.32;48.73;100670.78;7266174;19;153422;-54
2023/03/21 10:04:28;;;;;;;;;;;;;;;20.31;48.71;100675.56;7258422;19;155241;-54
2023/03/21 10:06:56;;;;;;;;;;;;;;;20.26;48.40;100669.22;7257162;19;154042;-54
2023/03/21 10:09:26;;;;;;;;;;;;;;;20.25;48.54;100673.19;7257838;19;152634;-54
2023/03/21 10:11:56;;;;;;;;;;;;;;;20.23;48.60;100679.09;7257153;19;152588;-54
2023/03/21 10:14:26;;;;;;;;;;;;;;;20.24;48.69;100674.31;7257540;19;154005;-54
2023/03/21 10:16:56;;;;;;;;;;;;;;;20.26;48.29;100674.84;7260436;19;153690;-54
2023/03/21 10:19:26;;;;;;;;;;;;;;;20.19;48.48;100694.88;7257727;19;154132;-54
2023/03/21 10:22:00;;;;;;;;;;;;;;;20.12;48.65;100688.88;7252615;19;153398;-54
2023/03/21 10:24:32;;;;;;;;;;;;;;;20.14;48.49;100682.94;7260125;19;153681;-54
2023/03/21 10:27:06;;;;;;;;;;;;;;;20.10;49.11;100673.50;7251178;19;153622;-55
2023/03/21 10:29:42;;;;;;;;;;;;;;;20.06;48.88;100670.47;7258021;19;154272;-54
2023/03/21 10:32:21;;;;;;;;;;;;;;;20.02;49.09;100677.03;7255602;19;151851;-54
2023/03/21 10:34:54;;;;;;;;;;;;;;;20.03;48.58;100667.47;7258631;19;154810;-54
2023/03/21 10:37:43;;;;;;;;;;;;;;;20.04;49.04;100660.69;7253974;19;153707;-54
2023/03/21 10:40:15;;;;;;;;;;;;;;;20.03;49.03;100662.69;7255985;19;153099;-54
2023/03/21 10:42:45;;;;;;;;;;;;;;;20.01;48.98;100658.53;7256536;19;153306;-54
2023/03/21 10:45:21;;;;;;;;;;;;;;;19.99;48.85;100656.03;7265528;19;153629;-54
2023/03/21 10:47:52;;;;;;;;;;;;;;;20.02;48.79;100651.78;7253779;19;154547;-55
2023/03/21 10:50:29;;;;;;;;;;;;;;;19.97;48.98;100649.91;7257549;19;152660;-55
2023/03/21 10:52:59;;;;;;;;;;;;;;;19.95;49.12;100647.41;7254107;19;153278;-55
2023/03/21 10:55:33;;;;;;;;;;;;;;;19.94;49.01;100647.75;7256726;19;154296;-55
2023/03/21 10:58:07;;;;;;;;;;;;;;;19.89;48.86;100640.28;7253235;19;154065;-55
2023/03/21 11:00:40;;;;;;;;;;;;;;;19.90;48.94;100638.28;7254432;19;152948;-55
2023/03/21 11:03:15;;;;;;;;;;;;;;;19.94;48.79;100633.72;7253238;19;153728;-54
2023/03/21 11:05:45;;;;;;;;;;;;;;;19.94;48.59;100622.50;7258336;19;153687;-55
2023/03/21 11:08:18;;;;;;;;;;;;;;;19.95;48.44;100610.13;7263934;19;153807;-55
2023/03/21 11:10:50;;;;;;;;;;;;;;;19.91;48.80;100625.91;7253910;19;153313;-55
2023/03/21 11:13:25;;;;;;;;;;;;;;;19.98;48.53;100610.34;7253864;19;153059;-55
2023/03/21 11:15:57;;;;;;;;;;;;;;;19.93;48.76;100601.22;7254507;19;153361;-55
2023/03/21 11:18:30;;;;;;;;;;;;;;;19.94;48.56;100592.47;7255064;19;153894;-55
2023/03/21 11:21:02;;;;;;;;;;;;;;;19.92;48.55;100605.16;7253723;19;153634;-55
2023/03/21 11:23:34;;;;;;;;;;;;;;;19.88;48.75;100604.13;7252051;19;153087;-55
2023/03/21 11:26:09;;;;;;;;;;;;;;;19.87;48.51;100603.28;7254319;19;153967;-55
2023/03/21 11:28:43;;;;;;;;;;;;;;;19.87;48.50;100592.06;7255423;19;152146;-55
2023/03/21 11:31:10;;;;;;;;;;;;;;;19.82;48.73;100600.59;7264770;19;155934;-54
2023/03/21 11:33:42;;;;;;;;;;;;;;;19.78;48.68;100593.94;7255350;19;153036;-55
2023/03/21 11:36:12;;;;;;;;;;;;;;;19.80;48.88;100591.69;7255526;19;155265;-54
2023/03/21 11:38:39;;;;;;;;;;;;;;;19.76;48.88;100579.41;7256251;19;152329;-54
2023/03/21 11:41:06;;;;;;;;;;;;;;;19.74;48.92;100581.69;7256932;19;153465;-54
2023/03/21 11:43:34;;;;;;;;;;;;;;;19.76;48.75;100593.41;7256404;19;155295;-54
2023/03/21 11:46:03;;;;;;;;;;;;;;;19.76;48.82;100590.63;7258250;19;152862;-54
2023/03/21 11:48:34;;;;;;;;;;;;;;;19.72;48.46;100595.19;7255559;19;153219;-54
2023/03/21 11:51:04;;;;;;;;;;;;;;;19.71;48.44;100593.56;7254791;19;154532;-54
2023/03/21 11:53:37;;;;;;;;;;;;;;;19.72;48.56;100599.97;7264335;19;154023;-54
2023/03/21 11:56:07;;;;;;;;;;;;;;;19.68;48.49;100598.94;7255801;19;153207;-54
2023/03/21 11:58:37;;;;;;;;;;;;;;;19.68;48.39;100602.56;7258543;19;154729;-55
2023/03/21 12:01:07;;;;;;;;;;;;;;;19.68;48.79;100608.16;7259261;19;153318;-55
2023/03/21 12:03:36;;;;;;;;;;;;;;;19.63;48.88;100599.03;7255657;19;153454;-54
2023/03/21 12:06:16;;;;;;;;;;;;;;;19.67;48.36;100612.09;7258261;19;152852;-55
2023/03/21 12:08:46;;;;;;;;;;;;;;;19.63;48.68;100611.06;7256457;19;152680;-55
2023/03/21 12:11:17;;;;;;;;;;;;;;;19.65;48.73;100603.19;7257298;19;153350;-55
2023/03/21 12:13:50;;;;;;;;;;;;;;;19.63;48.65;100601.81;7257962;19;153458;-54
2023/03/21 12:16:21;;;;;;;;;;;;;;;19.59;48.58;100596.03;7266044;19;152858;-55
2023/03/21 12:18:51;;;;;;;;;;;;;;;19.61;48.36;100598.53;7257447;19;153545;-55
2023/03/21 12:21:21;;;;;;;;;;;;;;;19.56;48.90;100601.41;7252885;19;153476;-54
2023/03/21 12:23:49;;;;;;;;;;;;;;;19.53;48.55;100600.88;7254756;19;153599;-54
2023/03/21 12:26:21;;;;;;;;;;;;;;;19.52;48.52;100602.06;7256677;19;152950;-54
2023/03/21 12:28:54;;;;;;;;;;;;;;;19.54;48.60;100599.75;7254466;19;152250;-54
2023/03/21 12:31:24;;;;;;;;;;;;;;;19.53;48.48;100602.88;7258296;19;153825;-54
2023/03/21 12:33:52;;;;;;;;;;;;;;;19.55;48.67;100583.78;7259302;19;153178;-55
2023/03/21 12:36:28;;;;;;;;;;;;;;;19.48;48.80;100577.75;7256061;19;153803;-54
2023/03/21 12:38:58;;;;;;;;;;;;;;;19.45;48.98;100579.19;7264688;19;153604;-54
2023/03/21 12:41:27;;;;;;;;;;;;;;;19.50;48.47;100579.09;7256067;19;152790;-54
2023/03/21 12:43:54;;;;;;;;;;;;;;;19.50;48.78;100586.66;7254049;19;153945;-54